createdAt,value
2018-02-06T00:01:51.909Z,2.60
2018-02-06T00:04:19.594Z,2.57
2018-02-06T00:06:47.278Z,2.61
2018-02-06T00:09:14.866Z,2.59
2018-02-06T00:11:42.643Z,2.54
2018-02-06T00:14:10.206Z,2.51
2018-02-06T00:16:37.743Z,2.51
2018-02-06T00:19:05.468Z,2.48
2018-02-06T00:21:33.117Z,2.43
2018-02-06T00:24:00.740Z,2.43
2018-02-06T00:26:28.287Z,2.38
2018-02-06T00:28:55.843Z,2.37
2018-02-06T00:31:23.750Z,2.41
2018-02-06T00:33:51.587Z,2.44
2018-02-06T00:36:19.178Z,2.48
2018-02-06T00:38:46.736Z,2.47
2018-02-06T00:41:14.554Z,2.41
2018-02-06T00:43:42.110Z,2.43
2018-02-06T00:46:09.685Z,2.39
2018-02-06T00:48:37.257Z,2.36
2018-02-06T00:51:04.819Z,2.33
2018-02-06T00:53:32.393Z,2.31
2018-02-06T00:55:59.933Z,2.30
2018-02-06T00:58:27.569Z,2.30
2018-02-06T01:00:55.134Z,2.31
2018-02-06T01:03:22.693Z,2.38
2018-02-06T01:05:50.250Z,2.39
2018-02-06T01:08:17.934Z,2.39
2018-02-06T01:10:45.770Z,2.40
2018-02-06T01:13:13.338Z,2.38
2018-02-06T01:15:41.085Z,2.35
2018-02-06T01:18:08.823Z,2.33
2018-02-06T01:20:36.657Z,2.24
2018-02-06T01:23:04.461Z,2.14
2018-02-06T01:25:32.035Z,2.04
2018-02-06T01:27:59.616Z,2.06
2018-02-06T01:30:27.191Z,2.09
2018-02-06T01:32:55.035Z,2.05
2018-02-06T01:35:22.849Z,2.00
2018-02-06T01:37:50.671Z,1.92
2018-02-06T01:40:18.234Z,1.87
2018-02-06T01:42:45.964Z,1.81
2018-02-06T01:45:13.576Z,1.75
2018-02-06T01:47:41.106Z,1.77
2018-02-06T01:50:08.669Z,1.71
2018-02-06T01:52:36.341Z,1.62
2018-02-06T01:55:03.953Z,1.58
2018-02-06T01:57:31.574Z,1.59
2018-02-06T01:59:59.125Z,1.59
2018-02-06T02:02:26.693Z,1.56
2018-02-06T02:04:54.278Z,1.59
2018-02-06T02:07:22.083Z,1.63
2018-02-06T02:09:49.699Z,1.55
2018-02-06T02:12:17.257Z,1.54
2018-02-06T02:14:45.037Z,1.59
2018-02-06T02:17:12.585Z,1.53
2018-02-06T02:19:40.177Z,1.55
2018-02-06T02:22:07.991Z,1.57
2018-02-06T02:24:35.614Z,1.50
2018-02-06T02:27:03.187Z,1.43
2018-02-06T02:29:30.768Z,1.41
2018-02-06T02:31:58.351Z,1.41
2018-02-06T02:34:26.082Z,1.43
2018-02-06T02:36:53.898Z,1.39
2018-02-06T02:39:21.439Z,1.33
2018-02-06T04:39:52.433Z,0.94
2018-02-06T04:42:20.035Z,0.96
2018-02-06T04:44:47.782Z,1.04
2018-02-06T04:47:15.413Z,1.04
2018-02-06T04:49:43.159Z,0.98
2018-02-06T04:52:10.698Z,0.98
2018-02-06T04:54:38.491Z,0.97
2018-02-06T04:57:06.067Z,1.07
2018-02-06T04:59:33.657Z,1.11
2018-02-06T05:02:01.209Z,1.14
2018-02-06T05:04:29.062Z,1.20
2018-02-06T05:06:56.851Z,1.28
2018-02-06T05:09:24.402Z,1.29
2018-02-06T05:11:52.216Z,1.25
2018-02-06T05:14:19.817Z,1.30
2018-02-06T05:16:47.382Z,1.29
2018-02-06T05:19:14.971Z,1.29
2018-02-06T05:21:42.594Z,1.31
2018-02-06T05:24:10.154Z,1.26
2018-02-06T05:26:37.756Z,1.27
2018-02-06T05:29:05.306Z,1.27
2018-02-06T05:31:33.060Z,1.30
2018-02-06T05:34:00.639Z,1.33
2018-02-06T05:36:28.194Z,1.39
2018-02-06T05:38:56.014Z,1.36
2018-02-06T05:41:23.606Z,1.40
2018-02-06T05:43:51.157Z,1.42
2018-02-06T05:46:18.968Z,1.37
2018-02-06T05:48:46.525Z,1.41
2018-02-06T05:51:14.197Z,1.46
2018-02-06T05:53:41.808Z,1.36
2018-02-06T05:56:09.657Z,1.41
2018-02-06T05:58:37.213Z,1.48
2018-02-06T06:01:04.866Z,1.50
2018-02-06T06:03:32.597Z,1.52
2018-02-06T06:06:00.203Z,1.55
2018-02-06T06:08:27.766Z,1.65
2018-02-06T06:10:55.447Z,1.72
2018-02-06T06:13:23.058Z,1.71
2018-02-06T06:15:50.621Z,1.71
2018-02-06T06:18:18.401Z,1.73
2018-02-06T06:20:45.965Z,1.75
2018-02-06T06:23:13.514Z,1.76
2018-02-06T06:25:41.084Z,1.81
2018-02-06T06:28:08.872Z,1.82
2018-02-06T06:30:36.606Z,1.86
2018-02-06T06:33:04.165Z,1.88
2018-02-06T06:35:31.726Z,1.94
2018-02-06T06:37:59.545Z,1.97
2018-02-06T06:40:27.109Z,1.97
2018-02-06T06:42:54.690Z,2.05
2018-02-06T06:45:22.499Z,2.23
2018-02-06T06:47:50.181Z,2.37
2018-02-06T06:50:17.749Z,2.55
2018-02-06T06:52:45.344Z,2.77
2018-02-06T06:55:13.988Z,3.02
2018-02-06T06:57:41.792Z,3.14
2018-02-06T07:00:09.406Z,3.69
2018-02-06T07:02:36.940Z,4.51
2018-02-06T07:05:04.514Z,5.03
2018-02-06T07:07:32.263Z,5.19
2018-02-06T07:09:59.829Z,5.46
2018-02-06T07:12:27.447Z,5.64
2018-02-06T07:14:55.007Z,5.84
2018-02-06T07:17:22.834Z,5.87
2018-02-06T07:19:50.403Z,5.81
2018-02-06T07:22:17.981Z,5.70
2018-02-06T07:24:45.789Z,5.58
2018-02-06T07:27:13.612Z,5.48
2018-02-06T07:29:41.222Z,5.52
2018-02-06T07:32:08.786Z,5.60
2018-02-06T07:34:36.461Z,5.63
2018-02-06T07:37:04.179Z,5.77
2018-02-06T07:39:31.741Z,5.64
2018-02-06T07:41:59.427Z,5.72
2018-02-06T07:44:27.041Z,6.07
2018-02-06T07:46:54.851Z,6.19
2018-02-06T07:49:22.408Z,6.28
2018-02-06T07:51:50.072Z,6.35
2018-02-06T07:54:17.796Z,6.25
2018-02-06T07:56:45.360Z,6.56
2018-02-06T07:59:12.934Z,7.02
2018-02-06T08:01:40.488Z,7.10
2018-02-06T08:04:08.530Z,7.29
2018-02-06T08:06:36.311Z,7.86
2018-02-06T08:09:04.810Z,8.75
2018-02-06T08:11:32.773Z,9.86
2018-02-06T08:14:00.320Z,10.44
2018-02-06T08:16:27.881Z,10.97
2018-02-06T08:18:55.479Z,12.01
2018-02-06T08:21:23.104Z,13.84
2018-02-06T08:23:50.670Z,15.31
2018-02-06T08:26:18.227Z,15.32
2018-02-06T08:28:45.851Z,15.42
2018-02-06T08:31:13.498Z,15.93
2018-02-06T08:33:41.081Z,15.78
2018-02-06T08:36:08.682Z,15.91
2018-02-06T08:38:36.532Z,16.86
2018-02-06T08:41:04.309Z,17.21
2018-02-06T08:43:32.147Z,17.99
2018-02-06T08:45:59.741Z,17.80
2018-02-06T08:48:27.297Z,17.68
2018-02-06T08:50:55.126Z,17.74
2018-02-06T08:53:22.720Z,18.20
2018-02-06T08:55:50.460Z,18.76
2018-02-06T08:58:18.045Z,18.38
2018-02-06T09:00:45.795Z,18.48
2018-02-06T09:03:13.368Z,18.94
2018-02-06T09:05:41.477Z,19.11
2018-02-06T09:08:09.046Z,18.97
2018-02-06T09:10:36.672Z,18.26
2018-02-06T09:13:04.291Z,18.54
2018-02-06T09:15:31.876Z,19.36
2018-02-06T09:17:59.489Z,19.60
2018-02-06T09:20:27.133Z,19.17
2018-02-06T09:22:54.821Z,19.37
2018-02-06T09:25:22.393Z,19.61
2018-02-06T09:27:49.965Z,19.16
2018-02-06T09:30:17.711Z,19.31
2018-02-06T09:32:45.282Z,19.42
2018-02-06T09:35:12.852Z,19.97
2018-02-06T09:37:40.665Z,19.35
2018-02-06T09:40:08.237Z,18.24
2018-02-06T09:42:35.798Z,17.95
2018-02-06T09:45:03.620Z,18.41
2018-02-06T09:47:31.224Z,18.66
2018-02-06T09:49:58.812Z,18.71
2018-02-06T09:52:26.578Z,18.89
2018-02-06T09:54:54.238Z,18.46
2018-02-06T09:57:21.828Z,18.74
2018-02-06T09:59:49.418Z,18.81
2018-02-06T10:02:17.006Z,19.06
2018-02-06T10:04:44.653Z,18.87
2018-02-06T10:07:12.229Z,18.58
2018-02-06T10:09:40.004Z,18.62
2018-02-06T10:12:07.630Z,18.60
2018-02-06T10:14:35.228Z,18.67
2018-02-06T10:17:02.789Z,18.27
2018-02-06T10:19:30.497Z,18.16
2018-02-06T10:21:58.165Z,17.91
2018-02-06T10:24:25.748Z,18.04
2018-02-06T10:26:53.421Z,18.43
2018-02-06T10:29:21.133Z,18.53
2018-02-06T10:31:48.860Z,19.14
2018-02-06T10:34:16.432Z,19.06
2018-02-06T10:36:44.202Z,19.11
2018-02-06T10:39:11.761Z,19.31
2018-02-06T10:41:39.535Z,19.77
2018-02-06T10:44:07.251Z,20.16
2018-02-06T10:46:34.877Z,20.35
2018-02-06T10:49:02.445Z,20.33
2018-02-06T10:51:30.011Z,20.56
2018-02-06T10:53:57.582Z,20.78
2018-02-06T10:56:25.304Z,20.81
2018-02-06T10:58:52.891Z,20.87
2018-02-06T11:01:20.675Z,20.69
2018-02-06T11:03:48.494Z,20.43
2018-02-06T11:06:16.093Z,20.55
2018-02-06T11:08:43.813Z,19.84
2018-02-06T11:11:11.388Z,19.00
2018-02-06T11:13:38.942Z,19.00
2018-02-06T11:16:06.506Z,18.98
2018-02-06T11:18:34.304Z,19.05
2018-02-06T11:21:01.957Z,19.51
2018-02-06T11:23:29.531Z,19.43
2018-02-06T11:25:57.095Z,19.73
2018-02-06T11:28:24.682Z,19.68
2018-02-06T11:30:52.497Z,19.79
2018-02-06T11:33:20.113Z,19.87
2018-02-06T11:35:47.934Z,19.64
2018-02-06T11:38:15.615Z,20.14
2018-02-06T11:40:43.187Z,20.19
2018-02-06T11:43:10.894Z,20.25
2018-02-06T11:45:38.502Z,20.67
2018-02-06T11:48:06.233Z,20.91
2018-02-06T11:50:33.871Z,21.23
2018-02-06T11:53:01.638Z,21.69
2018-02-06T11:55:29.319Z,21.39
2018-02-06T11:57:57.592Z,21.65
2018-02-06T12:00:25.205Z,22.09
2018-02-06T12:02:52.770Z,22.37
2018-02-06T12:05:20.331Z,22.27
2018-02-06T12:07:48.114Z,22.43
2018-02-06T12:10:15.817Z,22.36
2018-02-06T12:12:43.542Z,22.21
2018-02-06T12:15:11.319Z,22.17
2018-02-06T12:17:38.928Z,21.70
2018-02-06T12:20:06.500Z,21.44
2018-02-06T12:22:34.069Z,21.38
2018-02-06T12:25:01.680Z,21.01
2018-02-06T12:27:29.237Z,21.14
2018-02-06T12:29:56.972Z,21.14
2018-02-06T12:32:24.552Z,21.52
2018-02-06T12:34:52.122Z,21.04
2018-02-06T12:37:19.841Z,20.75
2018-02-06T12:39:47.401Z,21.69
2018-02-06T12:42:15.216Z,21.82
2018-02-06T12:44:43.035Z,21.53
2018-02-06T12:47:10.751Z,20.96
2018-02-06T12:49:38.327Z,21.40
2018-02-06T12:52:05.975Z,20.90
2018-02-06T12:54:33.683Z,20.38
2018-02-06T12:57:01.242Z,20.66
2018-02-06T12:59:28.794Z,20.98
2018-02-06T13:01:56.361Z,21.06
2018-02-06T13:04:24.069Z,20.93
2018-02-06T13:06:51.626Z,21.32
2018-02-06T13:09:19.321Z,21.60
2018-02-06T13:11:47.132Z,21.71
2018-02-06T13:14:14.697Z,21.44
2018-02-06T13:16:42.278Z,21.59
2018-02-06T13:19:10.088Z,21.89
2018-02-06T13:21:37.760Z,21.41
2018-02-06T13:24:05.365Z,20.86
2018-02-06T13:26:32.886Z,20.75
2018-02-06T13:29:00.449Z,20.36
2018-02-06T13:31:28.022Z,20.06
2018-02-06T13:33:55.795Z,19.05
2018-02-06T13:36:23.512Z,18.94
2018-02-06T13:38:51.139Z,19.11
2018-02-06T13:41:18.697Z,18.84
2018-02-06T13:43:46.258Z,19.14
2018-02-06T13:46:13.974Z,19.96
2018-02-06T13:48:41.550Z,20.37
2018-02-06T13:51:09.421Z,20.18
2018-02-06T13:53:37.239Z,20.57
2018-02-06T13:56:04.805Z,20.15
2018-02-06T13:58:32.411Z,19.60
2018-02-06T14:00:59.976Z,19.61
2018-02-06T14:03:27.601Z,19.67
2018-02-06T14:05:55.168Z,19.62
2018-02-06T14:08:22.737Z,19.24
2018-02-06T14:10:50.352Z,18.44
2018-02-06T14:13:18.114Z,17.57
2018-02-06T14:15:45.810Z,17.12
2018-02-06T14:18:13.393Z,16.83
2018-02-06T14:20:41.036Z,16.92
2018-02-06T14:23:08.595Z,17.03
2018-02-06T14:25:36.156Z,17.60
2018-02-06T14:28:03.738Z,18.26
2018-02-06T14:30:31.506Z,18.41
2018-02-06T14:32:59.221Z,17.72
2018-02-06T14:35:27.015Z,17.77
2018-02-06T14:37:57.503Z,17.64
2018-02-06T14:40:25.187Z,17.23
2018-02-06T14:42:52.749Z,17.26
2018-02-06T14:45:20.345Z,17.19
2018-02-06T14:47:48.141Z,17.21
2018-02-06T14:50:15.717Z,16.90
2018-02-06T14:52:43.478Z,16.79
2018-02-06T14:55:11.296Z,16.48
2018-02-06T14:57:39.014Z,16.50
2018-02-06T15:00:06.596Z,16.26
2018-02-06T15:02:34.351Z,16.43
2018-02-06T15:05:01.916Z,16.21
2018-02-06T15:07:29.553Z,15.70
2018-02-06T15:09:57.271Z,14.99
2018-02-06T15:12:24.840Z,14.22
2018-02-06T15:14:52.422Z,13.67
2018-02-06T15:17:20.174Z,13.21
2018-02-06T15:19:47.767Z,12.79
2018-02-06T15:22:15.494Z,12.50
2018-02-06T15:24:43.213Z,12.21
2018-02-06T15:27:11.031Z,11.93
2018-02-06T15:29:38.597Z,11.74
2018-02-06T15:32:06.244Z,11.56
2018-02-06T15:34:33.804Z,11.34
2018-02-06T15:37:01.375Z,11.17
2018-02-06T15:39:29.120Z,10.94
2018-02-06T15:41:56.839Z,10.79
2018-02-06T15:44:24.409Z,10.60
2018-02-06T15:46:51.969Z,10.47
2018-02-06T15:49:19.582Z,10.33
2018-02-06T15:51:47.142Z,10.28
2018-02-06T15:54:14.710Z,10.16
2018-02-06T15:56:42.282Z,10.07
2018-02-06T15:59:09.881Z,10.00
2018-02-06T16:01:37.481Z,9.93
2018-02-06T16:04:05.097Z,9.84
2018-02-06T16:06:32.666Z,9.75
2018-02-06T16:09:00.315Z,9.69
2018-02-06T16:11:27.884Z,9.58
2018-02-06T16:13:55.443Z,9.57
2018-02-06T16:16:23.057Z,9.51
2018-02-06T16:18:50.617Z,9.48
2018-02-06T16:21:18.213Z,9.40
2018-02-06T16:23:45.814Z,9.32
2018-02-06T16:26:13.374Z,9.25
2018-02-06T16:28:41.190Z,9.22
2018-02-06T16:31:08.755Z,9.19
2018-02-06T16:33:36.517Z,9.12
2018-02-06T16:36:04.126Z,9.04
2018-02-06T16:38:31.685Z,8.98
2018-02-06T16:40:59.263Z,8.93
2018-02-06T16:43:26.829Z,8.86
2018-02-06T16:45:54.602Z,8.80
2018-02-06T16:48:22.236Z,8.76
2018-02-06T16:50:50.246Z,8.72
2018-02-06T16:53:17.899Z,8.68
2018-02-06T16:55:45.475Z,8.56
2018-02-06T16:58:13.291Z,8.53
2018-02-06T17:00:40.877Z,8.48
2018-02-06T17:03:08.509Z,8.43
2018-02-06T17:05:36.069Z,8.37
2018-02-06T17:08:03.762Z,8.31
2018-02-06T17:10:31.362Z,8.25
2018-02-06T17:12:59.006Z,8.20
2018-02-06T17:15:26.557Z,8.19
2018-02-06T17:17:54.337Z,8.14
2018-02-06T17:20:21.899Z,8.07
2018-02-06T17:22:49.449Z,8.01
2018-02-06T17:25:17.191Z,8.02
2018-02-06T17:27:44.752Z,7.95
2018-02-06T17:30:12.467Z,7.94
2018-02-06T17:32:40.031Z,7.90
2018-02-06T17:35:07.607Z,7.87
2018-02-06T17:37:35.198Z,7.84
2018-02-06T17:40:02.753Z,7.78
2018-02-06T17:42:30.322Z,7.68
2018-02-06T17:44:58.057Z,7.65
2018-02-06T17:47:25.670Z,7.64
2018-02-06T17:49:53.230Z,7.64
2018-02-06T17:52:20.785Z,7.64
2018-02-06T17:54:48.605Z,7.60
2018-02-06T17:57:16.194Z,7.61
2018-02-06T17:59:43.810Z,7.57
2018-02-06T18:02:11.558Z,7.55
2018-02-06T18:04:39.183Z,7.54
2018-02-06T18:07:06.786Z,7.52
2018-02-06T18:09:34.518Z,7.52
2018-02-06T18:12:02.134Z,7.54
2018-02-06T18:14:29.721Z,7.47
2018-02-06T18:16:57.361Z,7.49
2018-02-06T18:19:24.914Z,7.52
2018-02-06T18:21:52.524Z,7.53
2018-02-06T18:24:20.197Z,7.54
2018-02-06T18:26:47.929Z,7.56
2018-02-06T18:29:15.656Z,7.56
2018-02-06T18:31:43.260Z,7.56
2018-02-06T18:34:10.943Z,7.57
2018-02-06T18:36:38.513Z,7.55
2018-02-06T18:39:06.139Z,7.53
2018-02-06T18:41:33.946Z,7.51
2018-02-06T18:44:01.554Z,7.49
2018-02-06T18:46:29.262Z,7.46
2018-02-06T18:48:56.826Z,7.45
2018-02-06T18:51:24.510Z,7.49
2018-02-06T18:53:52.260Z,7.50
2018-02-06T18:56:19.890Z,7.50
2018-02-06T18:58:47.440Z,7.51
2018-02-06T19:01:14.999Z,7.51
2018-02-06T19:03:42.691Z,7.55
2018-02-06T19:06:10.417Z,7.49
2018-02-06T19:08:38.059Z,7.54
2018-02-06T19:11:05.862Z,7.48
2018-02-06T19:13:33.475Z,7.46
2018-02-06T19:16:01.174Z,7.53
2018-02-06T19:18:28.917Z,7.55
2018-02-06T19:20:56.503Z,7.53
2018-02-06T19:23:24.076Z,7.50
2018-02-06T19:25:51.652Z,7.55
2018-02-06T19:28:19.274Z,7.58
2018-02-06T19:30:47.120Z,7.57
2018-02-06T19:33:14.682Z,7.58
2018-02-06T19:35:42.249Z,7.61
2018-02-06T19:38:10.060Z,7.54
2018-02-06T19:40:37.780Z,7.55
2018-02-06T19:43:05.437Z,7.51
2018-02-06T19:45:33.106Z,7.50
2018-02-06T19:48:00.682Z,7.50
2018-02-06T19:50:28.520Z,7.45
2018-02-06T19:52:56.082Z,7.52
2018-02-06T19:55:23.666Z,7.54
2018-02-06T19:57:51.406Z,7.58
2018-02-06T20:00:19.242Z,7.64
2018-02-06T20:02:47.043Z,7.64
2018-02-06T20:05:14.602Z,7.51
2018-02-06T20:07:42.378Z,7.59
2018-02-06T20:10:09.953Z,7.57
2018-02-06T20:12:37.538Z,7.51
2018-02-06T20:15:05.089Z,7.46
2018-02-06T20:17:32.703Z,7.44
2018-02-06T20:20:00.262Z,7.49
2018-02-06T20:22:27.871Z,7.45
2018-02-06T20:24:55.438Z,7.49
2018-02-06T20:27:22.995Z,7.51
2018-02-06T20:29:50.548Z,7.45
2018-02-06T20:32:18.118Z,7.43
2018-02-06T20:34:45.975Z,7.44
2018-02-06T20:37:13.792Z,7.44
2018-02-06T20:39:41.360Z,7.38
2018-02-06T20:42:09.229Z,7.44
2018-02-06T20:44:36.825Z,7.42
2018-02-06T20:47:04.398Z,7.40
2018-02-06T20:49:31.953Z,7.37
2018-02-06T20:51:59.763Z,7.37
2018-02-06T20:54:27.315Z,7.33
2018-02-06T20:56:54.878Z,7.29
2018-02-06T20:59:22.610Z,7.30
2018-02-06T21:01:50.181Z,7.29
2018-02-06T21:04:18.091Z,7.27
2018-02-06T21:06:45.909Z,7.30
2018-02-06T21:09:13.468Z,7.32
2018-02-06T21:11:41.042Z,7.33
2018-02-06T21:14:08.763Z,7.30
2018-02-06T21:16:36.549Z,7.29
2018-02-06T21:19:04.265Z,7.24
2018-02-06T21:21:31.840Z,7.26
2018-02-06T21:23:59.635Z,7.28
2018-02-06T21:26:27.354Z,7.25
2018-02-06T21:28:55.002Z,7.29
2018-02-06T21:31:22.675Z,7.30
2018-02-06T21:33:50.295Z,7.30
2018-02-06T21:36:17.945Z,7.27
2018-02-06T21:38:45.537Z,7.33
2018-02-06T21:41:13.205Z,7.23
2018-02-06T21:43:40.829Z,7.31
2018-02-06T21:46:09.568Z,7.32
2018-02-06T21:48:37.238Z,7.28
2018-02-06T21:51:04.805Z,7.33
2018-02-06T21:53:32.516Z,7.38
2018-02-06T21:56:00.153Z,7.35
2018-02-06T21:58:27.891Z,7.35
2018-02-06T22:00:55.712Z,7.27
2018-02-06T22:03:23.529Z,7.27
2018-02-06T22:05:51.726Z,7.25
2018-02-06T22:08:19.302Z,7.24
2018-02-06T22:10:46.897Z,7.23
2018-02-06T22:13:14.702Z,7.24
2018-02-06T22:15:42.823Z,7.26
2018-02-06T22:18:10.754Z,7.05
2018-02-06T22:20:38.313Z,7.27
2018-02-06T22:23:05.874Z,7.28
2018-02-06T22:25:33.595Z,7.28
2018-02-06T22:28:01.417Z,7.29
2018-02-06T22:30:29.332Z,7.28
2018-02-06T22:32:57.154Z,7.25
2018-02-06T22:35:24.759Z,7.27
2018-02-06T22:37:52.325Z,7.29
2018-02-06T22:40:19.906Z,7.35
2018-02-06T22:42:47.722Z,7.36
2018-02-06T22:45:15.275Z,7.32
2018-02-06T22:47:43.060Z,7.32
2018-02-06T22:50:10.878Z,7.28
2018-02-06T22:52:38.466Z,7.27
2018-02-06T22:55:06.019Z,7.27
2018-02-06T22:57:33.609Z,7.23
2018-02-06T23:00:01.329Z,7.20
2018-02-06T23:02:29.050Z,7.19
2018-02-06T23:04:56.666Z,7.18
2018-02-06T23:07:24.294Z,7.17
2018-02-06T23:09:52.028Z,7.14
2018-02-06T23:12:19.840Z,7.16
2018-02-06T23:14:48.008Z,6.94
2018-02-06T23:17:15.780Z,7.15
2018-02-06T23:19:43.371Z,7.18
2018-02-06T23:22:11.114Z,7.16
2018-02-06T23:24:38.673Z,7.17
2018-02-06T23:27:06.432Z,7.18
2018-02-06T23:29:34.149Z,7.15
2018-02-06T23:32:02.050Z,7.13
2018-02-06T23:34:29.853Z,7.15
2018-02-06T23:36:57.629Z,7.13
2018-02-06T23:39:25.361Z,7.08
2018-02-06T23:41:52.934Z,7.06
2018-02-06T23:44:20.569Z,7.01
2018-02-06T23:46:48.764Z,6.99
2018-02-06T23:49:16.326Z,7.01
2018-02-06T23:51:44.351Z,6.95
2018-02-06T23:54:12.236Z,7.02
2018-02-06T23:56:39.951Z,6.99
2018-02-06T23:59:07.791Z,6.94
